sensor_id;sensor_type;location;lat;lon;timestamp;pressure;altitude;pressure_sealevel;temperature;humidity
41632;BME280;37452;51.938;4.624;2023-02-13T00:00:17;79433.47;;;-142.75;100.00
41632;BME280;37452;51.938;4.624;2023-02-13T00:02:43;79431.50;;;-142.75;100.00
41632;BME280;37452;51.938;4.624;2023-02-13T00:05:08;79441.34;;;-142.75;100.00
41632;BME280;37452;51.938;4.624;2023-02-13T00:07:34;79461.06;;;-142.75;100.00
41632;BME280;37452;51.938;4.624;2023-02-13T00:09:59;79451.22;;;-142.75;100.00
41632;BME280;37452;51.938;4.624;2023-02-13T00:12:24;79439.38;;;-142.75;100.00
41632;BME280;37452;51.938;4.624;2023-02-13T00:14:50;79449.25;;;-142.75;100.00
41632;BME280;37452;51.938;4.624;2023-02-13T00:17:15;79449.25;;;-142.75;100.00
41632;BME280;37452;51.938;4.624;2023-02-13T00:19:40;79453.19;;;-142.75;100.00
41632;BME280;37452;51.938;4.624;2023-02-13T00:22:05;79449.25;;;-142.75;100.00
41632;BME280;37452;51.938;4.624;2023-02-13T00:24:31;79431.50;;;-142.75;100.00
41632;BME280;37452;51.938;4.624;2023-02-13T00:26:56;79439.38;;;-142.75;100.00
41632;BME280;37452;51.938;4.624;2023-02-13T00:29:21;79441.34;;;-142.75;100.00
41632;BME280;37452;51.938;4.624;2023-02-13T00:31:46;79449.25;;;-142.75;100.00
41632;BME280;37452;51.938;4.624;2023-02-13T00:34:12;79453.19;;;-142.75;100.00
41632;BME280;37452;51.938;4.624;2023-02-13T00:36:37;79441.34;;;-142.75;100.00
41632;BME280;37452;51.938;4.624;2023-02-13T00:39:02;79445.28;;;-142.75;100.00
41632;BME280;37452;51.938;4.624;2023-02-13T00:41:29;79445.28;;;-142.75;100.00
41632;BME280;37452;51.938;4.624;2023-02-13T00:43:54;79433.47;;;-142.75;100.00
41632;BME280;37452;51.938;4.624;2023-02-13T00:46:19;79445.28;;;-142.75;100.00
41632;BME280;37452;51.938;4.624;2023-02-13T00:48:45;79457.13;;;-142.75;100.00
41632;BME280;37452;51.938;4.624;2023-02-13T00:51:10;79457.13;;;-142.75;100.00
41632;BME280;37452;51.938;4.624;2023-02-13T00:53:36;79457.13;;;-142.75;100.00
41632;BME280;37452;51.938;4.624;2023-02-13T00:56:03;79449.25;;;-142.75;100.00
41632;BME280;37452;51.938;4.624;2023-02-13T00:58:29;79455.16;;;-142.75;100.00
41632;BME280;37452;51.938;4.624;2023-02-13T01:00:55;79465.00;;;-142.75;100.00
41632;BME280;37452;51.938;4.624;2023-02-13T01:03:21;79461.06;;;-142.75;100.00
41632;BME280;37452;51.938;4.624;2023-02-13T01:05:47;79447.28;;;-142.75;100.00
41632;BME280;37452;51.938;4.624;2023-02-13T01:08:13;79453.19;;;-142.75;100.00
41632;BME280;37452;51.938;4.624;2023-02-13T01:10:39;79453.19;;;-142.75;100.00
41632;BME280;37452;51.938;4.624;2023-02-13T01:13:06;79465.00;;;-142.75;100.00
41632;BME280;37452;51.938;4.624;2023-02-13T01:15:32;79441.34;;;-142.75;100.00
41632;BME280;37452;51.938;4.624;2023-02-13T01:17:57;79421.66;;;-142.75;100.00
41632;BME280;37452;51.938;4.624;2023-02-13T01:20:25;79441.34;;;-142.75;100.00
41632;BME280;37452;51.938;4.624;2023-02-13T01:22:50;79415.75;;;-142.75;100.00
41632;BME280;37452;51.938;4.624;2023-02-13T01:25:16;79419.69;;;-142.75;100.00
41632;BME280;37452;51.938;4.624;2023-02-13T01:27:41;79423.63;;;-142.75;100.00
41632;BME280;37452;51.938;4.624;2023-02-13T01:30:08;79431.50;;;-142.75;100.00
41632;BME280;37452;51.938;4.624;2023-02-13T01:32:38;79431.50;;;-142.75;100.00
41632;BME280;37452;51.938;4.624;2023-02-13T01:35:03;79429.53;;;-142.75;100.00
41632;BME280;37452;51.938;4.624;2023-02-13T01:37:28;79433.47;;;-142.75;100.00
41632;BME280;37452;51.938;4.624;2023-02-13T01:39:54;79419.69;;;-142.75;100.00
41632;BME280;37452;51.938;4.624;2023-02-13T01:42:24;79411.81;;;-142.75;100.00
41632;BME280;37452;51.938;4.624;2023-02-13T01:45:36;79419.69;;;-142.75;100.00
41632;BME280;37452;51.938;4.624;2023-02-13T01:48:33;79441.34;;;-142.75;100.00
41632;BME280;37452;51.938;4.624;2023-02-13T01:50:37;79423.63;;;-142.75;100.00
41632;BME280;37452;51.938;4.624;2023-02-13T01:53:05;79405.91;;;-142.75;100.00
41632;BME280;37452;51.938;4.624;2023-02-13T01:55:35;79425.59;;;-142.75;100.00
41632;BME280;37452;51.938;4.624;2023-02-13T01:58:11;79429.53;;;-142.75;100.00
41632;BME280;37452;51.938;4.624;2023-02-13T02:00:39;79439.38;;;-142.75;100.00
41632;BME280;37452;51.938;4.624;2023-02-13T02:03:14;79433.47;;;-142.75;100.00
41632;BME280;37452;51.938;4.624;2023-02-13T02:05:42;79427.56;;;-142.75;100.00
41632;BME280;37452;51.938;4.624;2023-02-13T02:08:08;79423.63;;;-142.75;100.00
41632;BME280;37452;51.938;4.624;2023-02-13T02:10:35;79439.38;;;-142.75;100.00
41632;BME280;37452;51.938;4.624;2023-02-13T02:13:02;79425.59;;;-142.75;100.00
41632;BME280;37452;51.938;4.624;2023-02-13T02:15:29;79415.75;;;-142.75;100.00
41632;BME280;37452;51.938;4.624;2023-02-13T02:17:55;79421.66;;;-142.75;100.00
41632;BME280;37452;51.938;4.624;2023-02-13T02:20:44;79433.47;;;-142.75;100.00
41632;BME280;37452;51.938;4.624;2023-02-13T02:23:20;79447.28;;;-142.75;100.00
41632;BME280;37452;51.938;4.624;2023-02-13T02:26:06;79443.31;;;-142.75;100.00
41632;BME280;37452;51.938;4.624;2023-02-13T02:42:42;79409.84;;;-142.75;100.00
41632;BME280;37452;51.938;4.624;2023-02-13T02:45:28;79405.91;;;-142.75;100.00
41632;BME280;37452;51.938;4.624;2023-02-13T02:48:02;79405.91;;;-142.75;100.00
41632;BME280;37452;51.938;4.624;2023-02-13T02:50:53;79421.66;;;-142.75;100.00
41632;BME280;37452;51.938;4.624;2023-02-13T02:53:38;79417.72;;;-142.75;100.00
41632;BME280;37452;51.938;4.624;2023-02-13T02:56:30;79405.91;;;-142.75;100.00
41632;BME280;37452;51.938;4.624;2023-02-13T02:59:07;79403.94;;;-142.75;100.00
41632;BME280;37452;51.938;4.624;2023-02-13T03:01:54;79417.72;;;-142.75;100.00
41632;BME280;37452;51.938;4.624;2023-02-13T03:04:42;79415.75;;;-142.75;100.00
41632;BME280;37452;51.938;4.624;2023-02-13T03:07:28;79423.63;;;-142.75;100.00
41632;BME280;37452;51.938;4.624;2023-02-13T03:10:04;79401.97;;;-142.75;100.00
41632;BME280;37452;51.938;4.624;2023-02-13T03:13:14;79390.13;;;-142.75;100.00
41632;BME280;37452;51.938;4.624;2023-02-13T03:15:52;79411.81;;;-142.75;100.00
41632;BME280;37452;51.938;4.624;2023-02-13T03:18:42;79403.94;;;-142.75;100.00
41632;BME280;37452;51.938;4.624;2023-02-13T03:21:50;79398.03;;;-142.75;100.00
41632;BME280;37452;51.938;4.624;2023-02-13T03:25:59;79407.88;;;-142.75;100.00
41632;BME280;37452;51.938;4.624;2023-02-13T03:28:28;79403.94;;;-142.75;100.00
41632;BME280;37452;51.938;4.624;2023-02-13T03:31:48;79401.97;;;-142.75;100.00
41632;BME280;37452;51.938;4.624;2023-02-13T03:34:23;79411.81;;;-142.75;100.00
41632;BME280;37452;51.938;4.624;2023-02-13T03:36:58;79394.09;;;-142.75;100.00
41632;BME280;37452;51.938;4.624;2023-02-13T03:39:53;79405.91;;;-142.75;100.00
41632;BME280;37452;51.938;4.624;2023-02-13T03:42:37;79411.81;;;-142.75;100.00
41632;BME280;37452;51.938;4.624;2023-02-13T03:45:12;79431.50;;;-142.75;100.00
41632;BME280;37452;51.938;4.624;2023-02-13T03:47:59;79394.09;;;-142.75;100.00
41632;BME280;37452;51.938;4.624;2023-02-13T03:50:26;79388.16;;;-142.75;100.00
41632;BME280;37452;51.938;4.624;2023-02-13T03:53:00;79388.16;;;-142.75;100.00
41632;BME280;37452;51.938;4.624;2023-02-13T03:55:31;79382.25;;;-142.75;100.00
41632;BME280;37452;51.938;4.624;2023-02-13T03:58:23;79378.31;;;-142.75;100.00
41632;BME280;37452;51.938;4.624;2023-02-13T04:01:11;79401.97;;;-142.75;100.00
41632;BME280;37452;51.938;4.624;2023-02-13T04:09:01;79401.97;;;-142.75;100.00
41632;BME280;37452;51.938;4.624;2023-02-13T04:11:29;79382.25;;;-142.75;100.00
41632;BME280;37452;51.938;4.624;2023-02-13T04:13:59;79378.31;;;-142.75;100.00
41632;BME280;37452;51.938;4.624;2023-02-13T04:16:34;79382.25;;;-142.75;100.00
41632;BME280;37452;51.938;4.624;2023-02-13T04:19:04;79378.31;;;-142.75;100.00
41632;BME280;37452;51.938;4.624;2023-02-13T04:21:35;79380.28;;;-142.75;100.00
41632;BME280;37452;51.938;4.624;2023-02-13T04:24:01;79382.25;;;-142.75;100.00
41632;BME280;37452;51.938;4.624;2023-02-13T04:26:28;79417.72;;;-142.75;100.00
41632;BME280;37452;51.938;4.624;2023-02-13T04:28:55;79394.09;;;-142.75;100.00
41632;BME280;37452;51.938;4.624;2023-02-13T04:31:20;79384.22;;;-142.75;100.00
41632;BME280;37452;51.938;4.624;2023-02-13T04:33:45;79378.31;;;-142.75;100.00
41632;BME280;37452;51.938;4.624;2023-02-13T04:36:10;79382.25;;;-142.75;100.00
41632;BME280;37452;51.938;4.624;2023-02-13T04:38:36;79390.13;;;-142.75;100.00
41632;BME280;37452;51.938;4.624;2023-02-13T04:41:01;79398.03;;;-142.75;100.00
41632;BME280;37452;51.938;4.624;2023-02-13T04:43:26;79390.13;;;-142.75;100.00
41632;BME280;37452;51.938;4.624;2023-02-13T04:45:52;79392.13;;;-142.75;100.00
41632;BME280;37452;51.938;4.624;2023-02-13T04:48:17;79396.06;;;-142.75;100.00
41632;BME280;37452;51.938;4.624;2023-02-13T04:50:42;79398.03;;;-142.75;100.00
41632;BME280;37452;51.938;4.624;2023-02-13T04:53:08;79382.25;;;-142.75;100.00
41632;BME280;37452;51.938;4.624;2023-02-13T04:55:33;79394.09;;;-142.75;100.00
41632;BME280;37452;51.938;4.624;2023-02-13T04:57:58;79392.13;;;-142.75;100.00
41632;BME280;37452;51.938;4.624;2023-02-13T05:00:26;79374.38;;;-142.75;100.00
41632;BME280;37452;51.938;4.624;2023-02-13T05:02:52;79358.63;;;-142.75;100.00
41632;BME280;37452;51.938;4.624;2023-02-13T05:05:17;79346.81;;;-142.75;100.00
41632;BME280;37452;51.938;4.624;2023-02-13T05:07:43;79348.78;;;-142.75;100.00
41632;BME280;37452;51.938;4.624;2023-02-13T05:10:09;79342.88;;;-142.75;100.00
41632;BME280;37452;51.938;4.624;2023-02-13T05:12:34;79338.94;;;-142.75;100.00
41632;BME280;37452;51.938;4.624;2023-02-13T05:15:00;79346.81;;;-142.75;100.00
41632;BME280;37452;51.938;4.624;2023-02-13T05:17:25;79354.69;;;-142.75;100.00
41632;BME280;37452;51.938;4.624;2023-02-13T05:19:50;79346.81;;;-142.75;100.00
41632;BME280;37452;51.938;4.624;2023-02-13T05:22:15;79360.59;;;-142.75;100.00
41632;BME280;37452;51.938;4.624;2023-02-13T05:24:59;79358.63;;;-142.75;100.00
41632;BME280;37452;51.938;4.624;2023-02-13T05:27:25;79354.69;;;-142.75;100.00
41632;BME280;37452;51.938;4.624;2023-02-13T05:29:50;79364.53;;;-142.75;100.00
41632;BME280;37452;51.938;4.624;2023-02-13T05:32:15;79346.81;;;-142.75;100.00
41632;BME280;37452;51.938;4.624;2023-02-13T05:34:40;79335.00;;;-142.75;100.00
41632;BME280;37452;51.938;4.624;2023-02-13T05:37:06;79335.00;;;-142.75;100.00
41632;BME280;37452;51.938;4.624;2023-02-13T05:39:31;79346.81;;;-142.75;100.00
41632;BME280;37452;51.938;4.624;2023-02-13T05:41:56;79333.00;;;-142.75;100.00
41632;BME280;37452;51.938;4.624;2023-02-13T05:44:21;79331.03;;;-142.75;100.00
41632;BME280;37452;51.938;4.624;2023-02-13T05:46:47;79333.00;;;-142.75;100.00
41632;BME280;37452;51.938;4.624;2023-02-13T05:49:14;79333.00;;;-142.75;100.00
41632;BME280;37452;51.938;4.624;2023-02-13T05:51:40;79323.16;;;-142.75;100.00
41632;BME280;37452;51.938;4.624;2023-02-13T05:54:06;79342.88;;;-142.75;100.00
41632;BME280;37452;51.938;4.624;2023-02-13T05:56:31;79335.00;;;-142.75;100.00
41632;BME280;37452;51.938;4.624;2023-02-13T05:58:56;79335.00;;;-142.75;100.00
41632;BME280;37452;51.938;4.624;2023-02-13T06:01:22;79342.88;;;-142.75;100.00
41632;BME280;37452;51.938;4.624;2023-02-13T06:03:48;79335.00;;;-142.75;100.00
41632;BME280;37452;51.938;4.624;2023-02-13T06:06:13;79331.03;;;-142.75;100.00
41632;BME280;37452;51.938;4.624;2023-02-13T06:08:39;79335.00;;;-142.75;100.00
41632;BME280;37452;51.938;4.624;2023-02-13T06:11:04;79342.88;;;-142.75;100.00
41632;BME280;37452;51.938;4.624;2023-02-13T06:13:29;79342.88;;;-142.75;100.00
41632;BME280;37452;51.938;4.624;2023-02-13T06:15:55;79333.00;;;-142.75;100.00
41632;BME280;37452;51.938;4.624;2023-02-13T06:18:20;79335.00;;;-142.75;100.00
41632;BME280;37452;51.938;4.624;2023-02-13T06:20:46;79329.06;;;-142.75;100.00
41632;BME280;37452;51.938;4.624;2023-02-13T06:23:11;79329.06;;;-142.75;100.00
41632;BME280;37452;51.938;4.624;2023-02-13T06:25:37;79350.75;;;-142.75;100.00
41632;BME280;37452;51.938;4.624;2023-02-13T06:28:03;79335.00;;;-142.75;100.00
41632;BME280;37452;51.938;4.624;2023-02-13T06:30:29;79327.09;;;-142.75;100.00
41632;BME280;37452;51.938;4.624;2023-02-13T06:32:55;79317.25;;;-142.75;100.00
41632;BME280;37452;51.938;4.624;2023-02-13T06:35:20;79325.13;;;-142.75;100.00
41632;BME280;37452;51.938;4.624;2023-02-13T06:37:45;79329.06;;;-142.75;100.00
41632;BME280;37452;51.938;4.624;2023-02-13T06:40:11;79331.03;;;-142.75;100.00
41632;BME280;37452;51.938;4.624;2023-02-13T06:42:37;79335.00;;;-142.75;100.00
41632;BME280;37452;51.938;4.624;2023-02-13T06:45:02;79350.75;;;-142.75;100.00
41632;BME280;37452;51.938;4.624;2023-02-13T06:47:28;79370.44;;;-142.75;100.00
41632;BME280;37452;51.938;4.624;2023-02-13T06:49:53;79378.31;;;-142.75;100.00
41632;BME280;37452;51.938;4.624;2023-02-13T06:52:18;79382.25;;;-142.75;100.00
41632;BME280;37452;51.938;4.624;2023-02-13T06:54:44;79386.19;;;-142.75;100.00
41632;BME280;37452;51.938;4.624;2023-02-13T06:57:09;79390.13;;;-142.75;100.00
41632;BME280;37452;51.938;4.624;2023-02-13T06:59:34;79394.09;;;-142.75;100.00
41632;BME280;37452;51.938;4.624;2023-02-13T07:02:00;79390.13;;;-142.75;100.00
41632;BME280;37452;51.938;4.624;2023-02-13T07:04:26;79405.91;;;-142.75;100.00
41632;BME280;37452;51.938;4.624;2023-02-13T07:06:53;79396.06;;;-142.75;100.00
41632;BME280;37452;51.938;4.624;2023-02-13T07:09:19;79394.09;;;-142.75;100.00
41632;BME280;37452;51.938;4.624;2023-02-13T07:11:44;79386.19;;;-142.75;100.00
41632;BME280;37452;51.938;4.624;2023-02-13T07:14:09;79386.19;;;-142.75;100.00
41632;BME280;37452;51.938;4.624;2023-02-13T07:16:35;79411.81;;;-142.75;100.00
41632;BME280;37452;51.938;4.624;2023-02-13T07:19:00;79409.84;;;-142.75;100.00
41632;BME280;37452;51.938;4.624;2023-02-13T07:21:25;79401.97;;;-142.75;100.00
41632;BME280;37452;51.938;4.624;2023-02-13T07:23:51;79403.94;;;-142.75;100.00
41632;BME280;37452;51.938;4.624;2023-02-13T07:26:16;79394.09;;;-142.75;100.00
41632;BME280;37452;51.938;4.624;2023-02-13T07:28:41;79405.91;;;-142.75;100.00
41632;BME280;37452;51.938;4.624;2023-02-13T07:31:07;79394.09;;;-142.75;100.00
41632;BME280;37452;51.938;4.624;2023-02-13T07:33:33;79390.13;;;-142.75;100.00
41632;BME280;37452;51.938;4.624;2023-02-13T07:35:59;79413.78;;;-142.75;100.00
41632;BME280;37452;51.938;4.624;2023-02-13T07:38:25;79384.22;;;-142.75;100.00
41632;BME280;37452;51.938;4.624;2023-02-13T07:40:50;79378.31;;;-142.75;100.00
41632;BME280;37452;51.938;4.624;2023-02-13T07:43:15;79400.00;;;-142.75;100.00
41632;BME280;37452;51.938;4.624;2023-02-13T07:45:40;79405.91;;;-142.75;100.00
41632;BME280;37452;51.938;4.624;2023-02-13T07:48:06;79394.09;;;-142.75;100.00
41632;BME280;37452;51.938;4.624;2023-02-13T07:50:31;79354.69;;;-142.75;100.00
41632;BME280;37452;51.938;4.624;2023-02-13T07:53:01;79362.56;;;-142.75;100.00
41632;BME280;37452;51.938;4.624;2023-02-13T07:55:27;79370.44;;;-142.75;100.00
41632;BME280;37452;51.938;4.624;2023-02-13T07:57:53;79350.75;;;-142.75;100.00
41632;BME280;37452;51.938;4.624;2023-02-13T08:00:19;79346.81;;;-142.75;100.00
41632;BME280;37452;51.938;4.624;2023-02-13T08:02:44;79317.25;;;-142.75;100.00
41632;BME280;37452;51.938;4.624;2023-02-13T08:05:10;79295.59;;;-142.75;100.00
41632;BME280;37452;51.938;4.624;2023-02-13T08:07:35;79283.78;;;-142.75;100.00
41632;BME280;37452;51.938;4.624;2023-02-13T08:10:01;79256.19;;;-142.75;100.00
41632;BME280;37452;51.938;4.624;2023-02-13T08:12:45;79240.44;;;-142.75;100.00
41632;BME280;37452;51.938;4.624;2023-02-13T08:15:11;79242.41;;;-142.75;100.00
41632;BME280;37452;51.938;4.624;2023-02-13T08:17:36;79228.63;;;-142.75;100.00
41632;BME280;37452;51.938;4.624;2023-02-13T08:20:03;79230.59;;;-142.75;100.00
41632;BME280;37452;51.938;4.624;2023-02-13T08:22:28;79244.38;;;-142.75;100.00
41632;BME280;37452;51.938;4.624;2023-02-13T08:24:54;79234.53;;;-142.75;100.00
41632;BME280;37452;51.938;4.624;2023-02-13T08:27:19;79244.38;;;-142.75;100.00
41632;BME280;37452;51.938;4.624;2023-02-13T08:29:44;79232.56;;;-142.75;100.00
41632;BME280;37452;51.938;4.624;2023-02-13T08:32:10;79228.63;;;-142.75;100.00
41632;BME280;37452;51.938;4.624;2023-02-13T08:34:35;79218.75;;;-142.75;100.00
41632;BME280;37452;51.938;4.624;2023-02-13T08:37:01;79181.34;;;-142.75;100.00
41632;BME280;37452;51.938;4.624;2023-02-13T08:39:26;79183.31;;;-142.75;100.00
41632;BME280;37452;51.938;4.624;2023-02-13T08:41:51;79187.25;;;-142.75;100.00
41632;BME280;37452;51.938;4.624;2023-02-13T08:44:17;79165.59;;;-142.75;100.00
41632;BME280;37452;51.938;4.624;2023-02-13T08:46:42;79171.50;;;-142.75;100.00
41632;BME280;37452;51.938;4.624;2023-02-13T08:49:07;79157.72;;;-142.75;100.00
41632;BME280;37452;51.938;4.624;2023-02-13T08:51:32;79153.75;;;-142.75;100.00
41632;BME280;37452;51.938;4.624;2023-02-13T08:53:58;79141.94;;;-142.75;100.00
41632;BME280;37452;51.938;4.624;2023-02-13T08:56:23;79126.19;;;-142.75;100.00
41632;BME280;37452;51.938;4.624;2023-02-13T08:58:48;79130.13;;;-142.75;100.00
41632;BME280;37452;51.938;4.624;2023-02-13T09:01:14;79132.09;;;-142.75;100.00
41632;BME280;37452;51.938;4.624;2023-02-13T09:03:40;79145.88;;;-142.75;100.00
41632;BME280;37452;51.938;4.624;2023-02-13T09:06:05;79149.81;;;-142.75;100.00
41632;BME280;37452;51.938;4.624;2023-02-13T09:08:30;79145.88;;;-142.75;100.00
41632;BME280;37452;51.938;4.624;2023-02-13T09:11:00;79118.31;;;-142.75;100.00
41632;BME280;37452;51.938;4.624;2023-02-13T09:13:30;79106.50;;;-142.75;100.00
41632;BME280;37452;51.938;4.624;2023-02-13T09:16:00;79076.94;;;-142.75;100.00
41632;BME280;37452;51.938;4.624;2023-02-13T09:18:26;79043.47;;;-142.75;100.00
41632;BME280;37452;51.938;4.624;2023-02-13T09:21:09;79004.06;;;-142.75;100.00
41632;BME280;37452;51.938;4.624;2023-02-13T09:23:36;78982.41;;;-142.75;100.00
41632;BME280;37452;51.938;4.624;2023-02-13T09:26:04;78984.38;;;-142.75;100.00
41632;BME280;37452;51.938;4.624;2023-02-13T09:28:31;78992.25;;;-142.75;100.00
41632;BME280;37452;51.938;4.624;2023-02-13T09:30:58;78964.69;;;-142.75;100.00
41632;BME280;37452;51.938;4.624;2023-02-13T09:33:24;78968.63;;;-142.75;100.00
41632;BME280;37452;51.938;4.624;2023-02-13T09:35:50;78978.47;;;-142.75;100.00
41632;BME280;37452;51.938;4.624;2023-02-13T09:38:16;78968.63;;;-142.75;100.00
41632;BME280;37452;51.938;4.624;2023-02-13T09:40:49;78956.78;;;-142.75;100.00
41632;BME280;37452;51.938;4.624;2023-02-13T09:43:24;78931.19;;;-142.75;100.00
41632;BME280;37452;51.938;4.624;2023-02-13T09:45:54;78893.78;;;-142.75;100.00
41632;BME280;37452;51.938;4.624;2023-02-13T09:48:30;78856.34;;;-142.75;100.00
41632;BME280;37452;51.938;4.624;2023-02-13T09:50:57;78830.75;;;-142.75;100.00
41632;BME280;37452;51.938;4.624;2023-02-13T09:53:23;78811.03;;;-142.75;100.00
41632;BME280;37452;51.938;4.624;2023-02-13T09:55:59;78803.16;;;-142.75;100.00
41632;BME280;37452;51.938;4.624;2023-02-13T10:01:02;78822.88;;;-142.75;100.00
41632;BME280;37452;51.938;4.624;2023-02-13T10:03:29;78791.34;;;-142.75;100.00
41632;BME280;37452;51.938;4.624;2023-02-13T10:06:07;78818.91;;;-142.75;100.00
41632;BME280;37452;51.938;4.624;2023-02-13T10:14:10;78759.84;;;-142.75;100.00
41632;BME280;37452;51.938;4.624;2023-02-13T10:16:44;78803.16;;;-142.75;100.00
41632;BME280;37452;51.938;4.624;2023-02-13T10:19:26;78801.19;;;-142.75;100.00
41632;BME280;37452;51.938;4.624;2023-02-13T10:22:20;78736.19;;;-142.75;100.00
41632;BME280;37452;51.938;4.624;2023-02-13T10:24:51;78714.53;;;-142.75;100.00
41632;BME280;37452;51.938;4.624;2023-02-13T10:27:46;78669.25;;;-142.75;100.00
41632;BME280;37452;51.938;4.624;2023-02-13T10:30:24;78625.91;;;-142.75;100.00
41632;BME280;37452;51.938;4.624;2023-02-13T10:35:36;78600.31;;;-142.75;100.00
41632;BME280;37452;51.938;4.624;2023-02-13T10:38:13;78543.19;;;-142.75;100.00
41632;BME280;37452;51.938;4.624;2023-02-13T10:40:47;78503.81;;;-142.75;100.00
41632;BME280;37452;51.938;4.624;2023-02-13T10:43:19;78517.59;;;-142.75;100.00
41632;BME280;37452;51.938;4.624;2023-02-13T10:51:33;78462.44;;;-142.75;100.00
41632;BME280;37452;51.938;4.624;2023-02-13T11:02:31;78525.47;;;-142.75;100.00
41632;BME280;37452;51.938;4.624;2023-02-13T11:05:09;78478.19;;;-142.75;100.00
41632;BME280;37452;51.938;4.624;2023-02-13T11:07:38;78464.41;;;-142.75;100.00
41632;BME280;37452;51.938;4.624;2023-02-13T11:10:13;78436.84;;;-142.75;99.50
41632;BME280;37452;51.938;4.624;2023-02-13T11:12:38;78419.13;;;-142.75;100.00
41632;BME280;37452;51.938;4.624;2023-02-13T11:15:08;78369.88;;;-142.75;96.74
41632;BME280;37452;51.938;4.624;2023-02-13T11:17:44;78318.69;;;-142.75;92.89
41632;BME280;37452;51.938;4.624;2023-02-13T11:20:32;78300.97;;;-142.75;91.41
41632;BME280;37452;51.938;4.624;2023-02-13T11:23:32;78306.88;;;-142.75;88.87
41632;BME280;37452;51.938;4.624;2023-02-13T11:26:07;78261.56;;;-142.75;87.82
41632;BME280;37452;51.938;4.624;2023-02-13T11:28:54;78186.75;;;-142.75;84.47
41632;BME280;37452;51.938;4.624;2023-02-13T11:31:24;78208.41;;;-142.75;84.33
41632;BME280;37452;51.938;4.624;2023-02-13T11:33:50;78188.72;;;-142.75;83.93
41632;BME280;37452;51.938;4.624;2023-02-13T11:36:31;78188.72;;;-142.75;81.43
41632;BME280;37452;51.938;4.624;2023-02-13T11:38:58;78167.03;;;-142.75;82.58
41632;BME280;37452;51.938;4.624;2023-02-13T11:41:24;78208.41;;;-142.75;83.02
41632;BME280;37452;51.938;4.624;2023-02-13T11:43:55;78249.75;;;-142.75;82.96
41632;BME280;37452;51.938;4.624;2023-02-13T11:46:27;78247.78;;;-142.75;83.10
41632;BME280;37452;51.938;4.624;2023-02-13T11:49:01;78277.31;;;-142.75;83.51
41632;BME280;37452;51.938;4.624;2023-02-13T11:51:45;78283.22;;;-142.75;84.75
41632;BME280;37452;51.938;4.624;2023-02-13T11:56:57;78265.50;;;-142.75;84.75
41632;BME280;37452;51.938;4.624;2023-02-13T11:59:25;78273.38;;;-142.75;83.88
41632;BME280;37452;51.938;4.624;2023-02-13T12:04:27;78216.28;;;-142.75;83.06
41632;BME280;37452;51.938;4.624;2023-02-13T12:07:20;78220.22;;;-142.75;82.24
41632;BME280;37452;51.938;4.624;2023-02-13T12:09:45;78245.81;;;-142.75;82.39
41632;BME280;37452;51.938;4.624;2023-02-13T12:12:39;78196.59;;;-142.75;83.41
41632;BME280;37452;51.938;4.624;2023-02-13T12:15:16;78165.06;;;-142.75;81.78
41632;BME280;37452;51.938;4.624;2023-02-13T12:17:44;78159.16;;;-142.75;79.64
41632;BME280;37452;51.938;4.624;2023-02-13T12:20:13;78235.97;;;-142.75;81.74
41632;BME280;37452;51.938;4.624;2023-02-13T12:23:09;78220.22;;;-142.75;81.92
41632;BME280;37452;51.938;4.624;2023-02-13T12:25:58;78232.03;;;-142.75;81.43
41632;BME280;37452;51.938;4.624;2023-02-13T12:34:24;78129.63;;;-142.75;80.42
41632;BME280;37452;51.938;4.624;2023-02-13T12:37:05;78117.81;;;-142.75;79.66
41632;BME280;37452;51.938;4.624;2023-02-13T12:39:44;78100.09;;;-142.75;78.26
41632;BME280;37452;51.938;4.624;2023-02-13T12:42:30;78070.56;;;-142.75;77.54
41632;BME280;37452;51.938;4.624;2023-02-13T12:45:14;78066.63;;;-142.75;77.68
41632;BME280;37452;51.938;4.624;2023-02-13T12:48:09;78054.81;;;-142.75;76.57
41632;BME280;37452;51.938;4.624;2023-02-13T12:50:56;78062.69;;;-142.75;77.95
41632;BME280;37452;51.938;4.624;2023-02-13T12:58:51;78109.94;;;-142.75;76.23
41632;BME280;37452;51.938;4.624;2023-02-13T13:04:38;78192.66;;;-142.75;79.02
41632;BME280;37452;51.938;4.624;2023-02-13T13:07:22;78182.81;;;-142.75;78.96
41632;BME280;37452;51.938;4.624;2023-02-13T13:10:09;78157.19;;;-142.75;78.64
41632;BME280;37452;51.938;4.624;2023-02-13T13:18:40;78228.09;;;-142.75;79.00
41632;BME280;37452;51.938;4.624;2023-02-13T13:21:12;78222.19;;;-142.75;79.14
41632;BME280;37452;51.938;4.624;2023-02-13T13:24:20;78261.56;;;-142.75;79.11
41632;BME280;37452;51.938;4.624;2023-02-13T13:26:49;78283.22;;;-142.75;79.26
41632;BME280;37452;51.938;4.624;2023-02-13T13:29:22;78314.75;;;-142.75;80.44
41632;BME280;37452;51.938;4.624;2023-02-13T13:32:02;78358.06;;;-142.75;82.08
41632;BME280;37452;51.938;4.624;2023-02-13T13:34:30;78379.72;;;-142.75;84.84
41632;BME280;37452;51.938;4.624;2023-02-13T13:42:40;78537.28;;;-142.75;97.05
41632;BME280;37452;51.938;4.624;2023-02-13T13:50:19;78586.53;;;-142.75;100.00
41632;BME280;37452;51.938;4.624;2023-02-13T13:58:41;78692.88;;;-142.75;100.00
41632;BME280;37452;51.938;4.624;2023-02-13T14:03:38;78748.03;;;-142.75;100.00
41632;BME280;37452;51.938;4.624;2023-02-13T14:06:09;78751.97;;;-142.75;100.00
41632;BME280;37452;51.938;4.624;2023-02-13T14:11:37;78777.56;;;-142.75;100.00
41632;BME280;37452;51.938;4.624;2023-02-13T14:16:50;78777.56;;;-142.75;100.00
41632;BME280;37452;51.938;4.624;2023-02-13T14:19:35;78775.59;;;-142.75;100.00
41632;BME280;37452;51.938;4.624;2023-02-13T14:22:34;78801.19;;;-142.75;100.00
41632;BME280;37452;51.938;4.624;2023-02-13T14:25:04;78805.13;;;-142.75;100.00